sensor_id;sensor_type;location;lat;lon;timestamp;P1;durP1;ratioP1;P2;durP2;ratioP2
75593;SDS011;64176;49.156;7.810;2023-04-03T00:01:16;3.10;;;2.65;;
75593;SDS011;64176;49.156;7.810;2023-04-03T00:04:04;3.38;;;1.80;;
75593;SDS011;64176;49.156;7.810;2023-04-03T00:06:50;3.72;;;3.17;;
75593;SDS011;64176;49.156;7.810;2023-04-03T00:09:37;3.75;;;3.08;;
75593;SDS011;64176;49.156;7.810;2023-04-03T00:12:28;3.80;;;1.92;;
75593;SDS011;64176;49.156;7.810;2023-04-03T00:15:12;3.42;;;2.50;;
75593;SDS011;64176;49.156;7.810;2023-04-03T00:20:43;2.80;;;2.13;;
75593;SDS011;64176;49.156;7.810;2023-04-03T00:26:14;4.55;;;3.53;;
75593;SDS011;64176;49.156;7.810;2023-04-03T00:29:01;2.47;;;1.70;;
75593;SDS011;64176;49.156;7.810;2023-04-03T00:31:45;4.95;;;2.70;;
75593;SDS011;64176;49.156;7.810;2023-04-03T00:34:31;4.50;;;2.25;;
75593;SDS011;64176;49.156;7.810;2023-04-03T00:37:17;6.43;;;3.75;;
75593;SDS011;64176;49.156;7.810;2023-04-03T00:40:02;3.70;;;2.55;;
75593;SDS011;64176;49.156;7.810;2023-04-03T00:42:51;4.35;;;2.08;;
75593;SDS011;64176;49.156;7.810;2023-04-03T00:45:39;3.25;;;2.15;;
75593;SDS011;64176;49.156;7.810;2023-04-03T00:48:41;5.80;;;3.20;;
75593;SDS011;64176;49.156;7.810;2023-04-03T00:51:29;4.00;;;2.22;;
75593;SDS011;64176;49.156;7.810;2023-04-03T00:54:16;3.42;;;2.00;;
75593;SDS011;64176;49.156;7.810;2023-04-03T00:57:02;3.50;;;2.75;;
75593;SDS011;64176;49.156;7.810;2023-04-03T00:59:50;3.70;;;2.42;;
75593;SDS011;64176;49.156;7.810;2023-04-03T01:02:41;2.88;;;1.88;;
75593;SDS011;64176;49.156;7.810;2023-04-03T01:05:27;3.38;;;2.42;;
75593;SDS011;64176;49.156;7.810;2023-04-03T01:08:11;3.35;;;2.53;;
75593;SDS011;64176;49.156;7.810;2023-04-03T01:10:58;3.83;;;2.00;;
75593;SDS011;64176;49.156;7.810;2023-04-03T01:13:43;4.25;;;2.60;;
75593;SDS011;64176;49.156;7.810;2023-04-03T01:16:30;2.88;;;1.85;;
75593;SDS011;64176;49.156;7.810;2023-04-03T01:19:17;3.50;;;1.77;;
75593;SDS011;64176;49.156;7.810;2023-04-03T01:22:27;4.07;;;2.00;;
75593;SDS011;64176;49.156;7.810;2023-04-03T01:25:24;3.35;;;2.28;;
75593;SDS011;64176;49.156;7.810;2023-04-03T01:28:20;3.45;;;2.00;;
75593;SDS011;64176;49.156;7.810;2023-04-03T01:34:07;2.80;;;2.42;;
75593;SDS011;64176;49.156;7.810;2023-04-03T01:36:51;3.45;;;2.63;;
75593;SDS011;64176;49.156;7.810;2023-04-03T01:39:37;3.88;;;2.33;;
75593;SDS011;64176;49.156;7.810;2023-04-03T01:42:29;2.53;;;2.05;;
75593;SDS011;64176;49.156;7.810;2023-04-03T01:45:13;2.85;;;2.38;;
75593;SDS011;64176;49.156;7.810;2023-04-03T01:48:02;3.90;;;3.05;;
75593;SDS011;64176;49.156;7.810;2023-04-03T01:50:47;2.97;;;2.30;;
75593;SDS011;64176;49.156;7.810;2023-04-03T01:53:37;2.67;;;2.35;;
75593;SDS011;64176;49.156;7.810;2023-04-03T01:56:25;3.40;;;2.45;;
75593;SDS011;64176;49.156;7.810;2023-04-03T01:59:10;2.90;;;2.40;;
75593;SDS011;64176;49.156;7.810;2023-04-03T02:01:57;3.40;;;2.42;;
75593;SDS011;64176;49.156;7.810;2023-04-03T02:04:41;7.63;;;2.50;;
75593;SDS011;64176;49.156;7.810;2023-04-03T02:07:25;7.03;;;2.63;;
75593;SDS011;64176;49.156;7.810;2023-04-03T02:10:09;4.07;;;2.90;;
75593;SDS011;64176;49.156;7.810;2023-04-03T02:12:53;6.57;;;2.33;;
75593;SDS011;64176;49.156;7.810;2023-04-03T02:15:46;2.65;;;1.88;;
75593;SDS011;64176;49.156;7.810;2023-04-03T02:18:34;4.82;;;2.28;;
75593;SDS011;64176;49.156;7.810;2023-04-03T02:21:23;4.18;;;1.90;;
75593;SDS011;64176;49.156;7.810;2023-04-03T02:24:07;4.03;;;2.17;;
75593;SDS011;64176;49.156;7.810;2023-04-03T02:26:54;4.97;;;2.20;;
75593;SDS011;64176;49.156;7.810;2023-04-03T02:29:38;4.38;;;2.40;;
75593;SDS011;64176;49.156;7.810;2023-04-03T02:32:22;2.67;;;2.05;;
75593;SDS011;64176;49.156;7.810;2023-04-03T02:35:07;4.78;;;3.17;;
75593;SDS011;64176;49.156;7.810;2023-04-03T02:40:39;4.45;;;2.00;;
75593;SDS011;64176;49.156;7.810;2023-04-03T02:43:24;3.30;;;2.58;;
75593;SDS011;64176;49.156;7.810;2023-04-03T02:46:08;4.65;;;2.53;;
75593;SDS011;64176;49.156;7.810;2023-04-03T02:48:52;3.00;;;2.22;;
75593;SDS011;64176;49.156;7.810;2023-04-03T02:51:37;2.28;;;2.00;;
75593;SDS011;64176;49.156;7.810;2023-04-03T02:54:23;2.65;;;1.98;;
75593;SDS011;64176;49.156;7.810;2023-04-03T02:57:12;2.83;;;2.08;;
75593;SDS011;64176;49.156;7.810;2023-04-03T02:59:56;4.63;;;2.40;;
75593;SDS011;64176;49.156;7.810;2023-04-03T03:02:42;3.22;;;2.20;;
75593;SDS011;64176;49.156;7.810;2023-04-03T03:05:29;2.78;;;2.45;;
75593;SDS011;64176;49.156;7.810;2023-04-03T03:08:13;6.82;;;2.40;;
75593;SDS011;64176;49.156;7.810;2023-04-03T03:10:58;2.92;;;1.85;;
75593;SDS011;64176;49.156;7.810;2023-04-03T03:13:42;2.47;;;1.92;;
75593;SDS011;64176;49.156;7.810;2023-04-03T03:16:28;2.95;;;2.40;;
75593;SDS011;64176;49.156;7.810;2023-04-03T03:19:14;4.63;;;1.65;;
75593;SDS011;64176;49.156;7.810;2023-04-03T03:21:58;2.28;;;2.00;;
75593;SDS011;64176;49.156;7.810;2023-04-03T03:24:45;3.70;;;1.80;;
75593;SDS011;64176;49.156;7.810;2023-04-03T03:27:32;4.43;;;2.63;;
75593;SDS011;64176;49.156;7.810;2023-04-03T03:30:16;2.42;;;1.60;;
75593;SDS011;64176;49.156;7.810;2023-04-03T03:33:00;2.10;;;1.90;;
75593;SDS011;64176;49.156;7.810;2023-04-03T03:35:52;3.22;;;2.08;;
75593;SDS011;64176;49.156;7.810;2023-04-03T03:38:37;2.35;;;2.00;;
75593;SDS011;64176;49.156;7.810;2023-04-03T03:41:23;2.33;;;1.63;;
75593;SDS011;64176;49.156;7.810;2023-04-03T03:44:08;2.20;;;1.77;;
75593;SDS011;64176;49.156;7.810;2023-04-03T03:46:55;4.28;;;2.13;;
75593;SDS011;64176;49.156;7.810;2023-04-03T03:52:33;3.33;;;1.67;;
75593;SDS011;64176;49.156;7.810;2023-04-03T03:55:19;5.13;;;2.88;;
75593;SDS011;64176;49.156;7.810;2023-04-03T03:58:12;4.53;;;2.42;;
75593;SDS011;64176;49.156;7.810;2023-04-03T04:00:56;2.75;;;2.08;;
75593;SDS011;64176;49.156;7.810;2023-04-03T04:03:40;3.05;;;2.40;;
75593;SDS011;64176;49.156;7.810;2023-04-03T04:06:27;3.90;;;2.22;;
75593;SDS011;64176;49.156;7.810;2023-04-03T04:09:15;3.78;;;2.13;;
75593;SDS011;64176;49.156;7.810;2023-04-03T04:11:59;3.53;;;2.22;;
75593;SDS011;64176;49.156;7.810;2023-04-03T04:14:50;2.97;;;2.08;;
75593;SDS011;64176;49.156;7.810;2023-04-03T04:17:34;7.32;;;2.55;;
75593;SDS011;64176;49.156;7.810;2023-04-03T04:20:25;5.30;;;2.10;;
75593;SDS011;64176;49.156;7.810;2023-04-03T04:23:13;3.63;;;2.22;;
75593;SDS011;64176;49.156;7.810;2023-04-03T04:25:57;4.13;;;2.50;;
75593;SDS011;64176;49.156;7.810;2023-04-03T04:28:41;2.72;;;2.08;;
75593;SDS011;64176;49.156;7.810;2023-04-03T04:31:27;2.55;;;2.33;;
75593;SDS011;64176;49.156;7.810;2023-04-03T04:34:14;2.90;;;2.38;;
75593;SDS011;64176;49.156;7.810;2023-04-03T04:36:59;3.40;;;2.65;;
75593;SDS011;64176;49.156;7.810;2023-04-03T04:39:45;2.67;;;2.17;;
75593;SDS011;64176;49.156;7.810;2023-04-03T04:42:30;2.45;;;1.92;;
75593;SDS011;64176;49.156;7.810;2023-04-03T04:45:14;3.40;;;2.40;;
75593;SDS011;64176;49.156;7.810;2023-04-03T04:48:01;3.30;;;2.75;;
75593;SDS011;64176;49.156;7.810;2023-04-03T04:50:44;5.68;;;1.98;;
75593;SDS011;64176;49.156;7.810;2023-04-03T04:53:29;3.85;;;2.85;;
75593;SDS011;64176;49.156;7.810;2023-04-03T04:56:13;4.35;;;2.20;;
75593;SDS011;64176;49.156;7.810;2023-04-03T04:58:59;6.43;;;3.85;;
75593;SDS011;64176;49.156;7.810;2023-04-03T05:01:44;6.95;;;4.13;;
75593;SDS011;64176;49.156;7.810;2023-04-03T05:04:33;17.98;;;9.25;;
75593;SDS011;64176;49.156;7.810;2023-04-03T05:07:23;7.68;;;3.42;;
75593;SDS011;64176;49.156;7.810;2023-04-03T05:10:11;3.55;;;2.85;;
75593;SDS011;64176;49.156;7.810;2023-04-03T05:12:55;2.30;;;1.67;;
75593;SDS011;64176;49.156;7.810;2023-04-03T05:15:40;3.30;;;2.42;;
75593;SDS011;64176;49.156;7.810;2023-04-03T05:18:25;2.65;;;2.45;;
75593;SDS011;64176;49.156;7.810;2023-04-03T05:21:14;3.50;;;1.98;;
75593;SDS011;64176;49.156;7.810;2023-04-03T05:23:58;2.55;;;1.77;;
75593;SDS011;64176;49.156;7.810;2023-04-03T05:26:49;2.83;;;1.85;;
75593;SDS011;64176;49.156;7.810;2023-04-03T05:29:33;2.83;;;1.88;;
75593;SDS011;64176;49.156;7.810;2023-04-03T05:32:19;2.65;;;1.90;;
75593;SDS011;64176;49.156;7.810;2023-04-03T05:35:08;3.70;;;2.20;;
75593;SDS011;64176;49.156;7.810;2023-04-03T05:37:59;10.07;;;5.80;;
75593;SDS011;64176;49.156;7.810;2023-04-03T05:40:45;5.65;;;3.30;;
75593;SDS011;64176;49.156;7.810;2023-04-03T05:43:30;2.78;;;1.75;;
75593;SDS011;64176;49.156;7.810;2023-04-03T05:46:15;3.63;;;2.55;;
75593;SDS011;64176;49.156;7.810;2023-04-03T05:49:04;2.95;;;1.92;;
75593;SDS011;64176;49.156;7.810;2023-04-03T05:51:53;3.00;;;2.10;;
75593;SDS011;64176;49.156;7.810;2023-04-03T05:54:42;2.80;;;2.22;;
75593;SDS011;64176;49.156;7.810;2023-04-03T05:57:32;3.55;;;2.00;;
75593;SDS011;64176;49.156;7.810;2023-04-03T06:00:19;1.88;;;1.50;;
75593;SDS011;64176;49.156;7.810;2023-04-03T06:03:14;2.75;;;2.10;;
75593;SDS011;64176;49.156;7.810;2023-04-03T06:06:00;3.97;;;2.33;;
75593;SDS011;64176;49.156;7.810;2023-04-03T06:08:47;5.13;;;1.90;;
75593;SDS011;64176;49.156;7.810;2023-04-03T06:11:36;3.60;;;2.30;;
75593;SDS011;64176;49.156;7.810;2023-04-03T06:14:23;2.25;;;1.25;;
75593;SDS011;64176;49.156;7.810;2023-04-03T06:17:07;6.35;;;5.72;;
75593;SDS011;64176;49.156;7.810;2023-04-03T06:19:52;4.68;;;4.28;;
75593;SDS011;64176;49.156;7.810;2023-04-03T06:22:37;2.35;;;1.98;;
75593;SDS011;64176;49.156;7.810;2023-04-03T06:25:21;3.30;;;1.90;;
75593;SDS011;64176;49.156;7.810;2023-04-03T06:28:05;4.10;;;2.70;;
75593;SDS011;64176;49.156;7.810;2023-04-03T06:30:51;9.00;;;4.55;;
75593;SDS011;64176;49.156;7.810;2023-04-03T06:33:38;15.52;;;12.10;;
75593;SDS011;64176;49.156;7.810;2023-04-03T06:36:22;6.65;;;4.30;;
75593;SDS011;64176;49.156;7.810;2023-04-03T06:39:06;5.15;;;3.63;;
75593;SDS011;64176;49.156;7.810;2023-04-03T06:41:57;6.35;;;5.32;;
75593;SDS011;64176;49.156;7.810;2023-04-03T06:44:54;4.65;;;2.20;;
75593;SDS011;64176;49.156;7.810;2023-04-03T06:47:39;4.88;;;3.10;;
75593;SDS011;64176;49.156;7.810;2023-04-03T06:50:23;14.45;;;6.22;;
75593;SDS011;64176;49.156;7.810;2023-04-03T06:53:07;3.92;;;3.17;;
75593;SDS011;64176;49.156;7.810;2023-04-03T06:55:51;3.08;;;2.15;;
75593;SDS011;64176;49.156;7.810;2023-04-03T06:58:38;5.10;;;2.55;;
75593;SDS011;64176;49.156;7.810;2023-04-03T07:01:24;11.65;;;5.75;;
75593;SDS011;64176;49.156;7.810;2023-04-03T07:04:12;4.47;;;2.45;;
75593;SDS011;64176;49.156;7.810;2023-04-03T07:06:59;5.82;;;2.05;;
75593;SDS011;64176;49.156;7.810;2023-04-03T07:12:30;2.92;;;1.83;;
75593;SDS011;64176;49.156;7.810;2023-04-03T07:15:14;4.57;;;3.53;;
75593;SDS011;64176;49.156;7.810;2023-04-03T07:18:01;5.25;;;3.45;;
75593;SDS011;64176;49.156;7.810;2023-04-03T07:20:45;3.42;;;2.58;;
75593;SDS011;64176;49.156;7.810;2023-04-03T07:23:29;4.72;;;2.55;;
75593;SDS011;64176;49.156;7.810;2023-04-03T07:26:13;2.28;;;1.50;;
75593;SDS011;64176;49.156;7.810;2023-04-03T07:28:57;2.58;;;2.35;;
75593;SDS011;64176;49.156;7.810;2023-04-03T07:31:41;8.25;;;3.95;;
75593;SDS011;64176;49.156;7.810;2023-04-03T07:34:26;3.90;;;2.10;;
75593;SDS011;64176;49.156;7.810;2023-04-03T07:37:10;4.47;;;2.08;;
75593;SDS011;64176;49.156;7.810;2023-04-03T07:39:56;4.18;;;2.22;;
75593;SDS011;64176;49.156;7.810;2023-04-03T07:42:45;3.22;;;2.47;;
75593;SDS011;64176;49.156;7.810;2023-04-03T07:45:28;4.70;;;1.75;;
75593;SDS011;64176;49.156;7.810;2023-04-03T07:48:13;2.33;;;2.13;;
75593;SDS011;64176;49.156;7.810;2023-04-03T07:51:00;4.25;;;2.15;;
75593;SDS011;64176;49.156;7.810;2023-04-03T07:53:47;3.25;;;2.05;;
75593;SDS011;64176;49.156;7.810;2023-04-03T07:56:36;3.22;;;1.80;;
75593;SDS011;64176;49.156;7.810;2023-04-03T08:02:08;5.93;;;3.15;;
75593;SDS011;64176;49.156;7.810;2023-04-03T08:04:54;3.08;;;2.20;;
75593;SDS011;64176;49.156;7.810;2023-04-03T08:10:25;2.03;;;1.80;;
75593;SDS011;64176;49.156;7.810;2023-04-03T08:13:11;3.72;;;1.63;;
75593;SDS011;64176;49.156;7.810;2023-04-03T08:15:55;2.67;;;1.75;;
75593;SDS011;64176;49.156;7.810;2023-04-03T08:18:43;2.83;;;1.88;;
75593;SDS011;64176;49.156;7.810;2023-04-03T08:24:16;2.67;;;1.75;;
75593;SDS011;64176;49.156;7.810;2023-04-03T08:27:02;3.13;;;2.25;;
75593;SDS011;64176;49.156;7.810;2023-04-03T08:29:46;4.15;;;1.77;;
75593;SDS011;64176;49.156;7.810;2023-04-03T08:32:36;2.30;;;2.05;;
75593;SDS011;64176;49.156;7.810;2023-04-03T08:35:23;1.92;;;1.65;;
75593;SDS011;64176;49.156;7.810;2023-04-03T08:38:09;5.47;;;2.05;;
75593;SDS011;64176;49.156;7.810;2023-04-03T08:50:19;3.97;;;2.65;;
75593;SDS011;64176;49.156;7.810;2023-04-03T08:53:12;4.13;;;2.63;;
75593;SDS011;64176;49.156;7.810;2023-04-03T08:56:00;5.18;;;2.45;;
75593;SDS011;64176;49.156;7.810;2023-04-03T08:58:56;3.30;;;2.40;;
75593;SDS011;64176;49.156;7.810;2023-04-03T09:01:45;7.07;;;3.38;;
75593;SDS011;64176;49.156;7.810;2023-04-03T09:04:31;3.38;;;3.10;;
75593;SDS011;64176;49.156;7.810;2023-04-03T09:07:20;8.48;;;3.83;;
75593;SDS011;64176;49.156;7.810;2023-04-03T09:13:08;6.85;;;3.28;;
75593;SDS011;64176;49.156;7.810;2023-04-03T09:16:20;8.15;;;3.20;;
75593;SDS011;64176;49.156;7.810;2023-04-03T09:22:07;3.85;;;2.45;;
75593;SDS011;64176;49.156;7.810;2023-04-03T09:25:13;16.63;;;6.40;;
75593;SDS011;64176;49.156;7.810;2023-04-03T09:28:02;3.08;;;2.22;;
75593;SDS011;64176;49.156;7.810;2023-04-03T09:30:47;4.55;;;4.15;;
75593;SDS011;64176;49.156;7.810;2023-04-03T09:33:33;4.85;;;3.67;;
75593;SDS011;64176;49.156;7.810;2023-04-03T09:36:43;11.50;;;6.00;;
75593;SDS011;64176;49.156;7.810;2023-04-03T09:39:53;4.03;;;3.22;;
75593;SDS011;64176;49.156;7.810;2023-04-03T09:42:40;11.73;;;5.47;;
75593;SDS011;64176;49.156;7.810;2023-04-03T09:45:33;10.73;;;4.88;;
75593;SDS011;64176;49.156;7.810;2023-04-03T09:48:23;6.18;;;2.78;;
75593;SDS011;64176;49.156;7.810;2023-04-03T09:51:13;3.58;;;2.40;;
75593;SDS011;64176;49.156;7.810;2023-04-03T09:53:59;2.65;;;2.45;;
75593;SDS011;64176;49.156;7.810;2023-04-03T09:56:43;5.95;;;3.10;;
75593;SDS011;64176;49.156;7.810;2023-04-03T09:59:34;9.77;;;4.57;;
75593;SDS011;64176;49.156;7.810;2023-04-03T10:02:40;6.93;;;3.10;;
75593;SDS011;64176;49.156;7.810;2023-04-03T10:05:25;4.25;;;1.33;;
75593;SDS011;64176;49.156;7.810;2023-04-03T10:13:50;24.58;;;10.20;;
75593;SDS011;64176;49.156;7.810;2023-04-03T10:16:39;2.38;;;1.10;;
75593;SDS011;64176;49.156;7.810;2023-04-03T10:34:51;2.08;;;1.30;;
75593;SDS011;64176;49.156;7.810;2023-04-03T10:37:57;7.20;;;3.42;;
75593;SDS011;64176;49.156;7.810;2023-04-03T10:43:38;1.95;;;1.60;;
75593;SDS011;64176;49.156;7.810;2023-04-03T10:46:29;1.95;;;1.10;;
75593;SDS011;64176;49.156;7.810;2023-04-03T10:49:31;4.05;;;1.50;;
75593;SDS011;64176;49.156;7.810;2023-04-03T10:52:48;3.22;;;1.40;;
75593;SDS011;64176;49.156;7.810;2023-04-03T10:55:36;5.45;;;1.67;;
75593;SDS011;64176;49.156;7.810;2023-04-03T10:58:28;2.22;;;1.45;;
75593;SDS011;64176;49.156;7.810;2023-04-03T11:01:20;1.70;;;1.35;;
75593;SDS011;64176;49.156;7.810;2023-04-03T11:04:11;2.60;;;1.02;;
75593;SDS011;64176;49.156;7.810;2023-04-03T11:09:53;2.33;;;0.98;;
75593;SDS011;64176;49.156;7.810;2023-04-03T11:12:48;2.50;;;1.58;;
75593;SDS011;64176;49.156;7.810;2023-04-03T11:15:54;3.25;;;1.17;;
75593;SDS011;64176;49.156;7.810;2023-04-03T11:21:33;2.15;;;1.13;;
75593;SDS011;64176;49.156;7.810;2023-04-03T11:24:33;3.30;;;1.40;;
75593;SDS011;64176;49.156;7.810;2023-04-03T11:27:22;1.63;;;1.48;;
75593;SDS011;64176;49.156;7.810;2023-04-03T11:30:09;1.73;;;1.23;;
75593;SDS011;64176;49.156;7.810;2023-04-03T11:36:06;2.50;;;1.75;;
75593;SDS011;64176;49.156;7.810;2023-04-03T11:38:57;4.10;;;1.55;;
75593;SDS011;64176;49.156;7.810;2023-04-03T11:41:45;3.63;;;1.10;;
75593;SDS011;64176;49.156;7.810;2023-04-03T11:44:36;2.38;;;1.52;;
75593;SDS011;64176;49.156;7.810;2023-04-03T12:01:59;1.98;;;1.45;;
75593;SDS011;64176;49.156;7.810;2023-04-03T12:05:23;4.93;;;1.92;;
75593;SDS011;64176;49.156;7.810;2023-04-03T12:08:15;2.17;;;1.20;;
75593;SDS011;64176;49.156;7.810;2023-04-03T12:19:37;4.28;;;1.30;;
75593;SDS011;64176;49.156;7.810;2023-04-03T12:22:27;3.10;;;1.38;;
75593;SDS011;64176;49.156;7.810;2023-04-03T12:28:38;4.45;;;1.23;;
75593;SDS011;64176;49.156;7.810;2023-04-03T12:31:24;1.80;;;0.93;;
75593;SDS011;64176;49.156;7.810;2023-04-03T12:44:09;3.28;;;1.35;;
75593;SDS011;64176;49.156;7.810;2023-04-03T12:47:28;2.97;;;1.90;;
75593;SDS011;64176;49.156;7.810;2023-04-03T12:50:24;2.33;;;2.13;;
75593;SDS011;64176;49.156;7.810;2023-04-03T12:53:16;2.88;;;1.20;;
75593;SDS011;64176;49.156;7.810;2023-04-03T12:59:14;2.03;;;1.20;;
75593;SDS011;64176;49.156;7.810;2023-04-03T13:02:01;3.28;;;1.25;;
75593;SDS011;64176;49.156;7.810;2023-04-03T13:04:49;1.52;;;1.42;;
75593;SDS011;64176;49.156;7.810;2023-04-03T13:07:35;8.77;;;2.75;;
75593;SDS011;64176;49.156;7.810;2023-04-03T13:10:22;2.90;;;1.90;;
75593;SDS011;64176;49.156;7.810;2023-04-03T13:13:07;3.45;;;1.98;;
75593;SDS011;64176;49.156;7.810;2023-04-03T13:15:53;7.43;;;2.70;;
75593;SDS011;64176;49.156;7.810;2023-04-03T13:18:38;2.15;;;1.60;;
75593;SDS011;64176;49.156;7.810;2023-04-03T13:21:27;5.65;;;2.20;;
75593;SDS011;64176;49.156;7.810;2023-04-03T13:24:15;6.95;;;4.18;;
75593;SDS011;64176;49.156;7.810;2023-04-03T13:26:59;3.28;;;2.65;;
75593;SDS011;64176;49.156;7.810;2023-04-03T13:29:48;5.35;;;2.80;;
75593;SDS011;64176;49.156;7.810;2023-04-03T13:32:35;6.30;;;3.20;;
75593;SDS011;64176;49.156;7.810;2023-04-03T13:35:30;3.67;;;2.15;;
75593;SDS011;64176;49.156;7.810;2023-04-03T13:41:02;5.70;;;2.72;;
75593;SDS011;64176;49.156;7.810;2023-04-03T13:43:52;7.57;;;4.75;;
75593;SDS011;64176;49.156;7.810;2023-04-03T13:46:38;5.68;;;3.65;;
75593;SDS011;64176;49.156;7.810;2023-04-03T13:59:02;4.22;;;1.63;;
75593;SDS011;64176;49.156;7.810;2023-04-03T14:02:12;4.88;;;3.92;;
75593;SDS011;64176;49.156;7.810;2023-04-03T14:05:02;5.15;;;2.25;;
75593;SDS011;64176;49.156;7.810;2023-04-03T14:07:49;7.97;;;5.32;;
75593;SDS011;64176;49.156;7.810;2023-04-03T14:10:34;3.47;;;2.28;;
75593;SDS011;64176;49.156;7.810;2023-04-03T14:13:21;8.40;;;4.78;;
75593;SDS011;64176;49.156;7.810;2023-04-03T14:16:05;8.70;;;5.07;;
75593;SDS011;64176;49.156;7.810;2023-04-03T14:18:49;6.80;;;6.10;;
75593;SDS011;64176;49.156;7.810;2023-04-03T14:21:38;4.07;;;2.63;;
75593;SDS011;64176;49.156;7.810;2023-04-03T14:24:27;4.03;;;2.97;;
75593;SDS011;64176;49.156;7.810;2023-04-03T14:27:37;5.50;;;2.58;;
75593;SDS011;64176;49.156;7.810;2023-04-03T14:30:24;7.85;;;3.55;;
75593;SDS011;64176;49.156;7.810;2023-04-03T14:33:14;10.30;;;5.10;;
75593;SDS011;64176;49.156;7.810;2023-04-03T14:36:01;6.50;;;2.63;;
75593;SDS011;64176;49.156;7.810;2023-04-03T14:38:55;3.55;;;2.30;;
75593;SDS011;64176;49.156;7.810;2023-04-03T14:41:39;5.07;;;1.92;;
75593;SDS011;64176;49.156;7.810;2023-04-03T14:44:26;4.88;;;3.22;;
75593;SDS011;64176;49.156;7.810;2023-04-03T14:47:17;2.97;;;1.73;;
75593;SDS011;64176;49.156;7.810;2023-04-03T14:50:06;2.70;;;1.95;;
75593;SDS011;64176;49.156;7.810;2023-04-03T14:55:39;4.80;;;2.72;;
75593;SDS011;64176;49.156;7.810;2023-04-03T14:58:26;7.40;;;3.25;;
75593;SDS011;64176;49.156;7.810;2023-04-03T15:01:16;3.60;;;2.20;;
75593;SDS011;64176;49.156;7.810;2023-04-03T15:04:01;3.10;;;2.15;;
75593;SDS011;64176;49.156;7.810;2023-04-03T15:06:46;3.05;;;1.65;;
75593;SDS011;64176;49.156;7.810;2023-04-03T15:09:35;2.13;;;1.52;;
75593;SDS011;64176;49.156;7.810;2023-04-03T15:12:25;5.50;;;3.55;;
75593;SDS011;64176;49.156;7.810;2023-04-03T15:15:09;3.65;;;1.55;;
75593;SDS011;64176;49.156;7.810;2023-04-03T15:17:54;3.42;;;2.53;;
75593;SDS011;64176;49.156;7.810;2023-04-03T15:20:43;2.90;;;2.20;;
75593;SDS011;64176;49.156;7.810;2023-04-03T15:23:28;2.88;;;1.52;;
75593;SDS011;64176;49.156;7.810;2023-04-03T15:26:16;3.80;;;1.50;;
75593;SDS011;64176;49.156;7.810;2023-04-03T15:29:00;8.00;;;4.60;;
75593;SDS011;64176;49.156;7.810;2023-04-03T15:31:44;7.32;;;5.00;;
75593;SDS011;64176;49.156;7.810;2023-04-03T15:34:28;3.45;;;2.25;;
75593;SDS011;64176;49.156;7.810;2023-04-03T15:37:15;3.33;;;1.95;;
75593;SDS011;64176;49.156;7.810;2023-04-03T15:40:05;3.95;;;2.05;;
75593;SDS011;64176;49.156;7.810;2023-04-03T15:42:50;4.95;;;2.50;;
75593;SDS011;64176;49.156;7.810;2023-04-03T15:45:35;3.70;;;3.15;;
75593;SDS011;64176;49.156;7.810;2023-04-03T15:48:20;3.00;;;1.75;;
75593;SDS011;64176;49.156;7.810;2023-04-03T15:51:07;4.45;;;2.30;;
75593;SDS011;64176;49.156;7.810;2023-04-03T15:53:51;2.67;;;1.80;;
75593;SDS011;64176;49.156;7.810;2023-04-03T15:56:34;5.03;;;2.10;;
75593;SDS011;64176;49.156;7.810;2023-04-03T15:59:18;6.03;;;1.80;;
75593;SDS011;64176;49.156;7.810;2023-04-03T16:02:06;3.13;;;1.75;;
75593;SDS011;64176;49.156;7.810;2023-04-03T16:04:54;5.05;;;2.63;;
75593;SDS011;64176;49.156;7.810;2023-04-03T16:07:39;3.03;;;1.80;;
75593;SDS011;64176;49.156;7.810;2023-04-03T16:10:23;4.15;;;2.00;;
75593;SDS011;64176;49.156;7.810;2023-04-03T16:13:07;6.43;;;3.45;;
75593;SDS011;64176;49.156;7.810;2023-04-03T16:15:54;13.18;;;6.57;;
75593;SDS011;64176;49.156;7.810;2023-04-03T16:18:41;7.05;;;3.38;;
75593;SDS011;64176;49.156;7.810;2023-04-03T16:21:26;4.50;;;1.67;;
75593;SDS011;64176;49.156;7.810;2023-04-03T16:24:11;3.80;;;1.90;;
75593;SDS011;64176;49.156;7.810;2023-04-03T16:26:55;4.50;;;3.13;;
75593;SDS011;64176;49.156;7.810;2023-04-03T16:29:39;2.47;;;1.85;;
75593;SDS011;64176;49.156;7.810;2023-04-03T16:32:23;2.97;;;1.58;;
75593;SDS011;64176;49.156;7.810;2023-04-03T16:35:14;4.63;;;2.85;;
75593;SDS011;64176;49.156;7.810;2023-04-03T16:40:43;6.22;;;2.42;;
75593;SDS011;64176;49.156;7.810;2023-04-03T16:43:32;4.13;;;1.90;;
75593;SDS011;64176;49.156;7.810;2023-04-03T16:46:17;3.50;;;2.15;;
75593;SDS011;64176;49.156;7.810;2023-04-03T16:49:01;1.95;;;1.30;;
75593;SDS011;64176;49.156;7.810;2023-04-03T16:51:45;3.08;;;1.73;;
75593;SDS011;64176;49.156;7.810;2023-04-03T16:54:29;6.85;;;2.05;;
75593;SDS011;64176;49.156;7.810;2023-04-03T16:57:19;2.90;;;1.85;;
75593;SDS011;64176;49.156;7.810;2023-04-03T17:00:06;5.13;;;2.17;;
75593;SDS011;64176;49.156;7.810;2023-04-03T17:03:00;3.10;;;1.67;;
75593;SDS011;64176;49.156;7.810;2023-04-03T17:05:47;2.22;;;1.38;;
75593;SDS011;64176;49.156;7.810;2023-04-03T17:08:34;3.20;;;1.95;;
75593;SDS011;64176;49.156;7.810;2023-04-03T17:11:21;3.55;;;1.63;;
75593;SDS011;64176;49.156;7.810;2023-04-03T17:14:05;3.78;;;2.58;;
75593;SDS011;64176;49.156;7.810;2023-04-03T17:16:49;4.13;;;1.75;;
75593;SDS011;64176;49.156;7.810;2023-04-03T17:19:38;5.15;;;2.45;;
75593;SDS011;64176;49.156;7.810;2023-04-03T17:22:28;6.15;;;3.42;;
75593;SDS011;64176;49.156;7.810;2023-04-03T17:25:13;5.43;;;3.50;;
75593;SDS011;64176;49.156;7.810;2023-04-03T17:27:58;3.72;;;3.42;;
75593;SDS011;64176;49.156;7.810;2023-04-03T17:30:44;4.82;;;3.75;;
75593;SDS011;64176;49.156;7.810;2023-04-03T17:33:31;4.05;;;2.50;;
75593;SDS011;64176;49.156;7.810;2023-04-03T17:36:16;4.85;;;2.75;;
75593;SDS011;64176;49.156;7.810;2023-04-03T17:39:00;8.52;;;4.45;;
75593;SDS011;64176;49.156;7.810;2023-04-03T17:41:47;5.00;;;2.40;;
75593;SDS011;64176;49.156;7.810;2023-04-03T17:44:35;8.30;;;5.43;;
75593;SDS011;64176;49.156;7.810;2023-04-03T17:47:18;3.22;;;2.28;;
75593;SDS011;64176;49.156;7.810;2023-04-03T17:50:02;3.83;;;1.80;;
75593;SDS011;64176;49.156;7.810;2023-04-03T17:52:52;4.32;;;2.50;;
75593;SDS011;64176;49.156;7.810;2023-04-03T17:55:36;3.25;;;1.67;;
75593;SDS011;64176;49.156;7.810;2023-04-03T17:58:22;3.55;;;3.22;;
75593;SDS011;64176;49.156;7.810;2023-04-03T18:01:13;2.78;;;2.58;;
75593;SDS011;64176;49.156;7.810;2023-04-03T18:04:01;6.90;;;3.28;;
75593;SDS011;64176;49.156;7.810;2023-04-03T18:06:47;6.35;;;3.40;;
75593;SDS011;64176;49.156;7.810;2023-04-03T18:09:34;5.75;;;3.30;;
75593;SDS011;64176;49.156;7.810;2023-04-03T18:12:23;7.18;;;5.60;;
75593;SDS011;64176;49.156;7.810;2023-04-03T18:15:14;7.90;;;4.75;;
75593;SDS011;64176;49.156;7.810;2023-04-03T18:17:57;6.28;;;3.00;;
75593;SDS011;64176;49.156;7.810;2023-04-03T18:20:44;9.18;;;4.85;;
75593;SDS011;64176;49.156;7.810;2023-04-03T18:23:29;40.03;;;16.20;;
75593;SDS011;64176;49.156;7.810;2023-04-03T18:26:16;44.78;;;19.67;;
75593;SDS011;64176;49.156;7.810;2023-04-03T18:29:03;32.60;;;15.88;;
75593;SDS011;64176;49.156;7.810;2023-04-03T18:31:52;26.77;;;11.90;;
75593;SDS011;64176;49.156;7.810;2023-04-03T18:34:38;19.10;;;12.32;;
75593;SDS011;64176;49.156;7.810;2023-04-03T18:37:21;16.17;;;9.25;;
75593;SDS011;64176;49.156;7.810;2023-04-03T18:42:55;6.35;;;4.20;;
75593;SDS011;64176;49.156;7.810;2023-04-03T18:45:39;6.63;;;4.43;;
75593;SDS011;64176;49.156;7.810;2023-04-03T18:51:11;8.57;;;5.38;;
75593;SDS011;64176;49.156;7.810;2023-04-03T18:53:56;8.38;;;5.32;;
75593;SDS011;64176;49.156;7.810;2023-04-03T18:56:42;11.85;;;7.30;;
75593;SDS011;64176;49.156;7.810;2023-04-03T18:59:27;11.00;;;8.80;;
75593;SDS011;64176;49.156;7.810;2023-04-03T19:02:11;7.05;;;5.63;;
75593;SDS011;64176;49.156;7.810;2023-04-03T19:04:56;12.75;;;8.05;;